BWA432 TTCP-TBPB
Flight info
| Callsign | BWA432 |
|---|---|
| Flight time | 0h 36m |
| Altitude | 19000 |
| Route | TAB R515 BGI |
| Aircraft | L101/H-SDFGHIRWXY/S |
Departure
| Time | 2026-04-27 09:54 |
|---|---|
| Airport | A.N.R. Robinson International Airport (TTCP) |
Arrival
| Time | 2026-04-27 10:31 |
|---|---|
| Airport | Grantley Adams International Airport (TBPB) |
| Time | Latitude | Longitude | Altitude | Speed | Heading |
|---|---|---|---|---|---|
| 2026-04-27 08:53 | 11.15173 | -60.83851 | 40 ft | 0 kts | 5° |
| 2026-04-27 09:44 | 11.15170 | -60.83851 | 40 ft | 3 kts | 6° |
| 2026-04-27 09:44 | 11.15143 | -60.83855 | 40 ft | 3 kts | 8° |
| 2026-04-27 09:44 | 11.15116 | -60.83858 | 38 ft | 4 kts | 1° |
| 2026-04-27 09:44 | 11.15091 | -60.83854 | 39 ft | 3 kts | 324° |
| 2026-04-27 09:45 | 11.15088 | -60.83852 | 39 ft | 0 kts | 320° |
| 2026-04-27 09:49 | 11.15089 | -60.83853 | 39 ft | 1 kts | 320° |
| 2026-04-27 09:49 | 11.15098 | -60.83867 | 37 ft | 4 kts | 299° |
| 2026-04-27 09:49 | 11.15112 | -60.83917 | 39 ft | 10 kts | 274° |
| 2026-04-27 09:50 | 11.15119 | -60.83994 | 39 ft | 11 kts | 274° |
| 2026-04-27 09:50 | 11.15123 | -60.84080 | 40 ft | 10 kts | 264° |
| 2026-04-27 09:50 | 11.15085 | -60.84149 | 39 ft | 13 kts | 227° |
| 2026-04-27 09:50 | 11.15040 | -60.84242 | 39 ft | 17 kts | 271° |
| 2026-04-27 09:51 | 11.15021 | -60.84341 | 38 ft | 10 kts | 244° |
| 2026-04-27 09:51 | 11.15011 | -60.84415 | 39 ft | 9 kts | 290° |
| 2026-04-27 09:51 | 11.15052 | -60.84416 | 37 ft | 7 kts | 60° |
| 2026-04-27 09:51 | 11.15051 | -60.84362 | 38 ft | 2 kts | 94° |
| 2026-04-27 09:52 | 11.15051 | -60.84361 | 38 ft | 0 kts | 94° |
| 2026-04-27 09:53 | 11.15051 | -60.84356 | 38 ft | 3 kts | 95° |
| 2026-04-27 09:53 | 11.15048 | -60.84329 | 35 ft | 0 kts | 95° |
| 2026-04-27 09:53 | 11.15048 | -60.84327 | 38 ft | 2 kts | 95° |
| 2026-04-27 09:53 | 11.15033 | -60.84155 | 39 ft | 68 kts | 95° |
| 2026-04-27 09:54 | 11.14977 | -60.83322 | 69 ft | 162 kts | 94° |
| 2026-04-27 09:54 | 11.14899 | -60.82114 | 1177 ft | 165 kts | 95° |
| 2026-04-27 09:54 | 11.14745 | -60.80962 | 2640 ft | 174 kts | 99° |
| 2026-04-27 09:54 | 11.14541 | -60.79694 | 3700 ft | 193 kts | 99° |
| 2026-04-27 09:55 | 11.14316 | -60.78259 | 4677 ft | 219 kts | 99° |
| 2026-04-27 09:55 | 11.14051 | -60.76667 | 5706 ft | 233 kts | 99° |
| 2026-04-27 09:55 | 11.14500 | -60.73300 | 7638 ft | 263 kts | 74° |
| 2026-04-27 09:56 | 11.15157 | -60.71483 | 8430 ft | 284 kts | 66° |
| 2026-04-27 09:56 | 11.16306 | -60.69797 | 9771 ft | 298 kts | 44° |
| 2026-04-27 09:56 | 11.18106 | -60.68770 | 11398 ft | 300 kts | 18° |
| 2026-04-27 09:56 | 11.20147 | -60.68509 | 13079 ft | 297 kts | 9° |
| 2026-04-27 09:57 | 11.22168 | -60.68031 | 14287 ft | 306 kts | 24° |
| 2026-04-27 09:57 | 11.24105 | -60.66985 | 15131 ft | 324 kts | 35° |
| 2026-04-27 09:57 | 11.26050 | -60.65712 | 16055 ft | 340 kts | 34° |
| 2026-04-27 09:57 | 11.28107 | -60.64434 | 17162 ft | 350 kts | 32° |
| 2026-04-27 09:58 | 11.30231 | -60.63202 | 18485 ft | 351 kts | 31° |
| 2026-04-27 09:58 | 11.32394 | -60.61966 | 19291 ft | 369 kts | 31° |
| 2026-04-27 09:58 | 11.34744 | -60.60601 | 19288 ft | 409 kts | 31° |
| 2026-04-27 09:58 | 11.37337 | -60.59078 | 19119 ft | 449 kts | 31° |
| 2026-04-27 09:59 | 11.40149 | -60.57428 | 19041 ft | 482 kts | 31° |
| 2026-04-27 09:59 | 11.43138 | -60.55680 | 18997 ft | 508 kts | 31° |
| 2026-04-27 09:59 | 11.46100 | -60.53956 | 18970 ft | 482 kts | 31° |
| 2026-04-27 09:59 | 11.48934 | -60.52313 | 18972 ft | 456 kts | 31° |
| 2026-04-27 10:00 | 11.51621 | -60.50753 | 18976 ft | 435 kts | 31° |
| 2026-04-27 10:00 | 11.54198 | -60.49254 | 18990 ft | 417 kts | 31° |
| 2026-04-27 10:00 | 11.56671 | -60.47812 | 18996 ft | 402 kts | 31° |
| 2026-04-27 10:00 | 11.59066 | -60.46417 | 18998 ft | 389 kts | 31° |
| 2026-04-27 10:01 | 11.61381 | -60.45072 | 18985 ft | 379 kts | 31° |
| 2026-04-27 10:01 | 11.63643 | -60.43752 | 18986 ft | 370 kts | 31° |
| 2026-04-27 10:01 | 11.65849 | -60.42461 | 18979 ft | 362 kts | 32° |
| 2026-04-27 10:01 | 11.67980 | -60.41216 | 18983 ft | 355 kts | 31° |
| 2026-04-27 10:02 | 11.70110 | -60.39979 | 18985 ft | 349 kts | 31° |
| 2026-04-27 10:02 | 11.72219 | -60.38750 | 19006 ft | 352 kts | 31° |
| 2026-04-27 10:02 | 11.74429 | -60.37459 | 18981 ft | 380 kts | 31° |
| 2026-04-27 10:02 | 11.76756 | -60.36095 | 18978 ft | 390 kts | 31° |
| 2026-04-27 10:03 | 11.79118 | -60.34708 | 18988 ft | 393 kts | 31° |
| 2026-04-27 10:03 | 11.81496 | -60.33312 | 18986 ft | 395 kts | 31° |
| 2026-04-27 10:03 | 11.83841 | -60.31940 | 19004 ft | 394 kts | 31° |
| 2026-04-27 10:03 | 11.86226 | -60.30547 | 18988 ft | 395 kts | 30° |
| 2026-04-27 10:04 | 11.88605 | -60.29156 | 19006 ft | 394 kts | 31° |
| 2026-04-27 10:04 | 11.90992 | -60.27760 | 18991 ft | 395 kts | 31° |
| 2026-04-27 10:04 | 11.93378 | -60.26366 | 19011 ft | 395 kts | 31° |
| 2026-04-27 10:04 | 11.95762 | -60.24972 | 18992 ft | 395 kts | 31° |
| 2026-04-27 10:05 | 11.98145 | -60.23576 | 18994 ft | 395 kts | 31° |
| 2026-04-27 10:05 | 12.00528 | -60.22175 | 18992 ft | 395 kts | 31° |
| 2026-04-27 10:05 | 12.02908 | -60.20776 | 19015 ft | 394 kts | 31° |
| 2026-04-27 10:05 | 12.05255 | -60.19402 | 19001 ft | 395 kts | 31° |
| 2026-04-27 10:06 | 12.07635 | -60.18008 | 19016 ft | 395 kts | 31° |
| 2026-04-27 10:06 | 12.10021 | -60.16604 | 18998 ft | 395 kts | 31° |
| 2026-04-27 10:06 | 12.12390 | -60.15197 | 19019 ft | 395 kts | 32° |
| 2026-04-27 10:06 | 12.14714 | -60.13691 | 19018 ft | 394 kts | 35° |
| 2026-04-27 10:07 | 12.16970 | -60.12103 | 19022 ft | 394 kts | 36° |
| 2026-04-27 10:07 | 12.19225 | -60.10498 | 19005 ft | 394 kts | 36° |
| 2026-04-27 10:07 | 12.21491 | -60.08920 | 19020 ft | 395 kts | 35° |
| 2026-04-27 10:07 | 12.23733 | -60.07373 | 18996 ft | 394 kts | 35° |
| 2026-04-27 10:08 | 12.26002 | -60.05802 | 19013 ft | 395 kts | 35° |
| 2026-04-27 10:08 | 12.28272 | -60.04214 | 18993 ft | 394 kts | 35° |
| 2026-04-27 10:08 | 12.30525 | -60.02630 | 19000 ft | 395 kts | 36° |
| 2026-04-27 10:08 | 12.32786 | -60.01040 | 19004 ft | 394 kts | 35° |
| 2026-04-27 10:09 | 12.35049 | -59.99451 | 19013 ft | 395 kts | 36° |
| 2026-04-27 10:09 | 12.37316 | -59.97861 | 18992 ft | 394 kts | 36° |
| 2026-04-27 10:09 | 12.39576 | -59.96274 | 19005 ft | 395 kts | 35° |
| 2026-04-27 10:09 | 12.41837 | -59.94682 | 19006 ft | 394 kts | 36° |
| 2026-04-27 10:10 | 12.44069 | -59.93108 | 19009 ft | 395 kts | 36° |
| 2026-04-27 10:10 | 12.46328 | -59.91514 | 19010 ft | 394 kts | 36° |
| 2026-04-27 10:10 | 12.48598 | -59.89918 | 18997 ft | 396 kts | 35° |
| 2026-04-27 10:10 | 12.50864 | -59.88329 | 19010 ft | 395 kts | 35° |
| 2026-04-27 10:11 | 12.53127 | -59.86741 | 18993 ft | 395 kts | 35° |
| 2026-04-27 10:11 | 12.55384 | -59.85153 | 19010 ft | 394 kts | 35° |
| 2026-04-27 10:11 | 12.57643 | -59.83561 | 18992 ft | 394 kts | 35° |
| 2026-04-27 10:11 | 12.59898 | -59.81972 | 19005 ft | 394 kts | 36° |
| 2026-04-27 10:12 | 12.62152 | -59.80385 | 18983 ft | 394 kts | 35° |
| 2026-04-27 10:12 | 12.64378 | -59.78819 | 19002 ft | 394 kts | 36° |
| 2026-04-27 10:12 | 12.66639 | -59.77226 | 18986 ft | 394 kts | 35° |
| 2026-04-27 10:12 | 12.68893 | -59.75637 | 18982 ft | 394 kts | 35° |
| 2026-04-27 10:13 | 12.71167 | -59.74032 | 18781 ft | 402 kts | 35° |
| 2026-04-27 10:13 | 12.73495 | -59.72389 | 18475 ft | 408 kts | 35° |
| 2026-04-27 10:13 | 12.75833 | -59.70741 | 18192 ft | 408 kts | 35° |
| 2026-04-27 10:13 | 12.78169 | -59.69095 | 17889 ft | 406 kts | 35° |
| 2026-04-27 10:14 | 12.80491 | -59.67455 | 17572 ft | 404 kts | 35° |
| 2026-04-27 10:14 | 12.82759 | -59.65855 | 17261 ft | 399 kts | 35° |
| 2026-04-27 10:14 | 12.85033 | -59.64251 | 16895 ft | 397 kts | 35° |
| 2026-04-27 10:14 | 12.87304 | -59.62648 | 16520 ft | 396 kts | 35° |
| 2026-04-27 10:15 | 12.89564 | -59.61052 | 16104 ft | 393 kts | 35° |
| 2026-04-27 10:15 | 12.91779 | -59.59488 | 15698 ft | 381 kts | 35° |
| 2026-04-27 10:15 | 12.93945 | -59.57960 | 15280 ft | 375 kts | 36° |
| 2026-04-27 10:15 | 12.96096 | -59.56471 | 14895 ft | 371 kts | 34° |
| 2026-04-27 10:16 | 12.98266 | -59.55056 | 14506 ft | 368 kts | 33° |
| 2026-04-27 10:16 | 13.00439 | -59.53693 | 14127 ft | 365 kts | 32° |
| 2026-04-27 10:16 | 13.02588 | -59.52349 | 13711 ft | 356 kts | 32° |
| 2026-04-27 10:16 | 13.04638 | -59.51050 | 13257 ft | 348 kts | 33° |
| 2026-04-27 10:17 | 13.06717 | -59.49804 | 12791 ft | 345 kts | 26° |
| 2026-04-27 10:17 | 13.08973 | -59.49054 | 12193 ft | 340 kts | 10° |
| 2026-04-27 10:17 | 13.11325 | -59.48972 | 11679 ft | 339 kts | 356° |
| 2026-04-27 10:17 | 13.13630 | -59.49421 | 11166 ft | 339 kts | 344° |
| 2026-04-27 10:18 | 13.15742 | -59.50476 | 10650 ft | 338 kts | 327° |
| 2026-04-27 10:18 | 13.17486 | -59.52081 | 10151 ft | 338 kts | 313° |
| 2026-04-27 10:18 | 13.18949 | -59.53967 | 9636 ft | 338 kts | 308° |
| 2026-04-27 10:18 | 13.20210 | -59.55999 | 9080 ft | 338 kts | 297° |
| 2026-04-27 10:19 | 13.21064 | -59.58192 | 8730 ft | 336 kts | 289° |
| 2026-04-27 10:19 | 13.21613 | -59.60523 | 8431 ft | 338 kts | 276° |
| 2026-04-27 10:19 | 13.21570 | -59.62927 | 8140 ft | 338 kts | 263° |
| 2026-04-27 10:19 | 13.21155 | -59.65306 | 7861 ft | 338 kts | 257° |
| 2026-04-27 10:20 | 13.20578 | -59.67651 | 7599 ft | 346 kts | 252° |
| 2026-04-27 10:20 | 13.19778 | -59.69942 | 7389 ft | 339 kts | 247° |
| 2026-04-27 10:20 | 13.18868 | -59.72145 | 7005 ft | 332 kts | 245° |
| 2026-04-27 10:20 | 13.17933 | -59.74275 | 6666 ft | 330 kts | 244° |
| 2026-04-27 10:21 | 13.16981 | -59.76411 | 6340 ft | 329 kts | 243° |
| 2026-04-27 10:21 | 13.15932 | -59.78493 | 5993 ft | 328 kts | 239° |
| 2026-04-27 10:21 | 13.14752 | -59.80460 | 5626 ft | 317 kts | 235° |
| 2026-04-27 10:21 | 13.13570 | -59.82247 | 5125 ft | 282 kts | 227° |
| 2026-04-27 10:22 | 13.12200 | -59.83517 | 4692 ft | 251 kts | 211° |
| 2026-04-27 10:22 | 13.10803 | -59.84420 | 4391 ft | 228 kts | 205° |
| 2026-04-27 10:22 | 13.09432 | -59.85209 | 4200 ft | 224 kts | 204° |
| 2026-04-27 10:22 | 13.08024 | -59.85849 | 4114 ft | 221 kts | 185° |
| 2026-04-27 10:23 | 13.06575 | -59.85746 | 3872 ft | 208 kts | 151° |
| 2026-04-27 10:23 | 13.05480 | -59.84866 | 3607 ft | 200 kts | 124° |
| 2026-04-27 10:23 | 13.04754 | -59.83671 | 3687 ft | 198 kts | 116° |
| 2026-04-27 10:23 | 13.04115 | -59.82399 | 3654 ft | 200 kts | 114° |
| 2026-04-27 10:24 | 13.03593 | -59.81104 | 3604 ft | 194 kts | 105° |
| 2026-04-27 10:24 | 13.03307 | -59.79751 | 3751 ft | 197 kts | 100° |
| 2026-04-27 10:24 | 13.03078 | -59.78341 | 3566 ft | 202 kts | 98° |
| 2026-04-27 10:24 | 13.02864 | -59.76924 | 3269 ft | 198 kts | 98° |
| 2026-04-27 10:25 | 13.02741 | -59.75558 | 3071 ft | 193 kts | 92° |
| 2026-04-27 10:25 | 13.02731 | -59.74184 | 3009 ft | 192 kts | 90° |
| 2026-04-27 10:25 | 13.02756 | -59.72814 | 3010 ft | 193 kts | 89° |
| 2026-04-27 10:25 | 13.02787 | -59.71433 | 2999 ft | 194 kts | 88° |
| 2026-04-27 10:26 | 13.02888 | -59.70062 | 2986 ft | 195 kts | 79° |
| 2026-04-27 10:26 | 13.03369 | -59.68749 | 2955 ft | 200 kts | 68° |
| 2026-04-27 10:26 | 13.03898 | -59.67427 | 2641 ft | 199 kts | 72° |
| 2026-04-27 10:26 | 13.04300 | -59.66083 | 2292 ft | 194 kts | 76° |
| 2026-04-27 10:27 | 13.04658 | -59.64779 | 2091 ft | 182 kts | 76° |
| 2026-04-27 10:27 | 13.04960 | -59.63570 | 2038 ft | 171 kts | 81° |
| 2026-04-27 10:27 | 13.05169 | -59.62386 | 2055 ft | 172 kts | 82° |
| 2026-04-27 10:27 | 13.05356 | -59.61169 | 2043 ft | 173 kts | 83° |
| 2026-04-27 10:28 | 13.05540 | -59.59945 | 1989 ft | 174 kts | 82° |
| 2026-04-27 10:28 | 13.05756 | -59.58734 | 1904 ft | 171 kts | 80° |
| 2026-04-27 10:28 | 13.05929 | -59.57540 | 1635 ft | 162 kts | 86° |
| 2026-04-27 10:28 | 13.06007 | -59.56480 | 1312 ft | 138 kts | 86° |
| 2026-04-27 10:29 | 13.06049 | -59.55523 | 1051 ft | 135 kts | 87° |
| 2026-04-27 10:29 | 13.06176 | -59.54548 | 879 ft | 139 kts | 79° |
| 2026-04-27 10:29 | 13.06412 | -59.53588 | 755 ft | 143 kts | 76° |
| 2026-04-27 10:29 | 13.06642 | -59.52596 | 567 ft | 144 kts | 79° |
| 2026-04-27 10:30 | 13.06888 | -59.51583 | 399 ft | 142 kts | 78° |
| 2026-04-27 10:30 | 13.07114 | -59.50642 | 214 ft | 131 kts | 76° |
| 2026-04-27 10:30 | 13.07310 | -59.49837 | 181 ft | 95 kts | 76° |
| 2026-04-27 10:30 | 13.07443 | -59.49304 | 180 ft | 61 kts | 76° |
| 2026-04-27 10:31 | 13.07517 | -59.49002 | 179 ft | 29 kts | 75° |
| 2026-04-27 10:31 | 13.07562 | -59.48814 | 180 ft | 27 kts | 76° |
| 2026-04-27 10:31 | 13.07611 | -59.48622 | 178 ft | 29 kts | 75° |
| 2026-04-27 10:31 | 13.07660 | -59.48417 | 177 ft | 29 kts | 75° |
| 2026-04-27 10:32 | 13.07733 | -59.48344 | 177 ft | 13 kts | 354° |
| 2026-04-27 10:32 | 13.07827 | -59.48364 | 180 ft | 10 kts | 341° |
| 2026-04-27 10:32 | 13.07855 | -59.48430 | 180 ft | 14 kts | 270° |
| 2026-04-27 10:32 | 13.07844 | -59.48507 | 181 ft | 10 kts | 256° |
| 2026-04-27 10:33 | 13.07822 | -59.48600 | 181 ft | 17 kts | 256° |
| 2026-04-27 10:33 | 13.07796 | -59.48704 | 181 ft | 5 kts | 256° |
| 2026-04-27 10:33 | 13.07808 | -59.48730 | 181 ft | 5 kts | 321° |
| 2026-04-27 10:33 | 13.07848 | -59.48744 | 181 ft | 5 kts | 347° |
| 2026-04-27 10:34 | 13.07868 | -59.48749 | 181 ft | 3 kts | 346° |
| 2026-04-27 10:34 | 13.07871 | -59.48750 | 181 ft | 0 kts | 346° |